• Join FlightAware (Why Join?)
  • Login
  • US Flag 
Rudolph Flight #1: Arrived! 
12:50AM EST


 

Airport Tracker/Info


-or-


 

Live Flight TrackerFlight Track Log ✈ KAP720 ✈ 07-May-2013 ✈ KBOS - KALB

Flight Track Log - Related Links

Times and Time Zones

All times are in EDT time to prevent confusion due to time zone crossing. See the KAP720 flight status page for this flight to view local times or setup timezone preferences in your user account.

Time Position Orientation Groundspeed Altitude Reporting Facility
EDT Latitude Longitude Course Direction KTS MPH feet Rate Location/Type
01:07PM 42.3833 -71.0167 360° North 138 159 500  Level KA90
01:07PM 42.4000 -71.0167 360° North 128 147 1,000 840 Climbing KA90
01:08PM 42.4000 -71.0667 270° West 126 145 1,800 660 Climbing KA90
01:09PM 42.4000 -71.1167 270° West 116 133 2,400 540 Climbing KA90
01:10PM 42.3833 -71.1500 236° Southwest 119 137 2,900 540 Climbing KA90
01:11PM 42.3667 -71.2000 246° West 118 136 3,500 540 Climbing KA90
01:12PM 42.3667 -71.2333 270° West 115 132 4,000 540 Climbing KA90
01:13PM 42.3500 -71.2833 246° West 116 133 4,700 660 Climbing KA90
01:14PM 42.3500 -71.3167 270° West 117 135 5,400 480 Climbing KA90
01:15PM 42.3333 -71.3667 246° West 120 138 5,700 420 Climbing KA90
01:16PM 42.3269 -71.4011 256° West 125 144 6,100 480 Climbing Boston Center
01:17PM 42.3189 -71.4544 258° West 124 143 6,600 420 Climbing Boston Center
01:18PM 42.3111 -71.5025 258° West 132 152 7,100 540 Climbing Boston Center
01:19PM 42.3053 -71.5503 261° West 128 147 7,700 480 Climbing Boston Center
01:20PM 42.3014 -71.6008 264° West 132 152 8,100 180 Climbing Boston Center
01:21PM 42.2914 -71.6542 256° West 153 176 8,100  Level Boston Center
01:22PM 42.2792 -71.7133 254° West 154 177 8,100  Level Boston Center
01:23PM 42.2692 -71.7694 256° West 155 178 8,100  Level Boston Center
01:24PM 42.2633 -71.8314 263° West 158 182 8,100  Level Boston Center
01:25PM 42.2656 -71.8903 273° West 160 184 8,100 -60 Level Boston Center
01:26PM 42.2700 -71.9519 276° West 161 185 8,000  Descending Boston Center
01:27PM 42.2683 -72.0164 268° West 160 184 8,100  Climbing Boston Center
01:28PM 42.2728 -72.0725 276° West 161 185 8,100 -60 Level Boston Center
01:29PM 42.2708 -72.1397 268° West 162 186 8,000 -60 Descending Boston Center
01:30PM 42.2731 -72.1989 273° West 162 186 8,000  Level Boston Center
01:31PM 42.2731 -72.2606 270° West 162 186 8,100  Climbing Boston Center
01:32PM 42.2753 -72.3194 273° West 164 189 8,000 -60 Descending Boston Center
01:33PM 42.2775 -72.3839 273° West 165 190 8,000  Level Boston Center
01:34PM 42.2817 -72.4400 276° West 165 190 8,000  Level Boston Center
01:35PM 42.3003 -72.4961 294° West 166 191 8,000  Level Boston Center
01:36PM 42.3233 -72.5553 298° West 165 190 8,000  Level Boston Center
01:37PM 42.3419 -72.6169 292° West 163 188 8,000  Level Boston Center
01:38PM 42.3647 -72.6706 300° West 163 188 8,000  Level Boston Center
01:39PM 42.3814 -72.7211 294° West 163 188 8,000  Level Boston Center
01:40PM 42.4019 -72.7858 293° West 162 186 8,000  Level Boston Center
01:41PM 42.4206 -72.8367 296° West 163 188 8,000  Level Boston Center
01:42PM 42.4392 -72.8931 294° West 163 188 8,100  Climbing Boston Center
01:43PM 42.4556 -72.9408 295° West 158 182 8,100  Level Boston Center
01:44PM 42.4761 -73.0031 294° West 165 190 8,100  Level Boston Center
01:45PM 42.4967 -73.0539 299° West 162 186 8,100  Level Boston Center
01:46PM 42.5111 -73.1019 292° West 160 184 8,100 -180 Level Boston Center
01:47PM 42.5314 -73.1586 296° West 165 190 7,800 -420 Descending Boston Center
01:48PM 42.5539 -73.2236 295° West 193 222 7,300 -600 Descending Boston Center
01:49PM 42.5619 -73.2914 279° West 193 222 6,700 -660 Descending Boston Center
01:50PM 42.5614 -73.3619 269° West 184 212 6,000 -720 Descending Boston Center
01:51PM 42.5586 -73.4378 267° West 179 206 5,300 -540 Descending Boston Center
01:52PM 42.5600 -73.5083 272° West 182 209 4,900 -120 Descending Boston Center
01:53PM 42.5594 -73.5703 269° West 163 188 5,100 -60 Climbing Boston Center
01:54PM 42.5547 -73.6294 264° West 154 177 4,800 -600 Descending Boston Center
01:55PM 42.5561 -73.6944 272° West 176 203 4,000 -780 Descending Boston Center
01:56PM 42.5553 -73.7592 269° West 179 206 3,300 -720 Descending Boston Center
01:57PM 42.5839 -73.8019 312° West 182 209 2,600 -660 Descending Boston Center
01:59PM 42.6403 -73.8006 North 169 194 2,000 -480 Descending Boston Center
02:00PM 42.6778 -73.8042 356° North 139 160 1,600 -600 Descending Boston Center
02:01PM 42.7153 -73.8050 359° North 126 145 900 -720 Descending Boston Center